Time;durP1;ratioP1;P1;durP2;ratioP2;P2;SDS_P1;SDS_P2;PMS_P1;PMS_P2;Temp;Humidity;BMP_temperature;BMP_pressure;BME280_temperature;BME280_humidity;BME280_pressure;Samples;Min_cycle;Max_cycle;Signal;HPM_P1;HPM_P2
2021/04/27 00:02:15;;;;;;;5.37;2.20;;;10.20;53.70;;;;;;5051716;28;20276;-71
2021/04/27 00:04:41;;;;;;;1.80;1.70;;;10.10;53.60;;;;;;5079511;28;20231;-70
2021/04/27 00:07:07;;;;;;;2.90;1.90;;;10.10;53.80;;;;;;5073363;28;20492;-70
2021/04/27 00:09:33;;;;;;;2.50;2.20;;;10.10;53.70;;;;;;5034712;28;20234;-70
2021/04/27 00:11:59;;;;;;;1.90;1.80;;;10.10;53.60;;;;;;5052021;28;20694;-71
2021/04/27 00:14:24;;;;;;;2.63;2.40;;;10.10;53.60;;;;;;5034991;28;20442;-70
2021/04/27 00:16:50;;;;;;;2.40;2.17;;;10.10;53.50;;;;;;5068412;28;20231;-70
2021/04/27 00:19:16;;;;;;;2.13;1.93;;;10.00;53.40;;;;;;5046440;28;20222;-70
2021/04/27 00:21:41;;;;;;;4.80;2.53;;;10.00;53.30;;;;;;5018831;28;20752;-69
2021/04/27 00:24:08;;;;;;;6.63;2.00;;;10.00;53.80;;;;;;5063259;28;20717;-72
2021/04/27 00:26:33;;;;;;;2.20;2.00;;;9.90;54.40;;;;;;5048823;28;20698;-70
2021/04/27 00:28:59;;;;;;;4.07;2.33;;;9.90;54.40;;;;;;5068162;28;20460;-71
2021/04/27 00:31:27;;;;;;;5.13;1.87;;;9.90;54.40;;;;;;5051185;28;20261;-70
2021/04/27 00:33:57;;;;;;;3.73;2.17;;;9.80;54.60;;;;;;5088643;28;20226;-71
2021/04/27 00:36:23;;;;;;;2.80;2.57;;;9.80;54.50;;;;;;5055126;28;20507;-71
2021/04/27 00:38:49;;;;;;;1.90;1.60;;;9.70;54.60;;;;;;5072076;28;20451;-71
2021/04/27 00:41:15;;;;;;;3.80;2.13;;;9.70;54.60;;;;;;5042242;28;20456;-70
2021/04/27 00:43:41;;;;;;;4.47;2.80;;;9.70;54.70;;;;;;5072195;28;20469;-72
2021/04/27 00:46:08;;;;;;;2.33;2.13;;;9.60;54.80;;;;;;5055378;28;20807;-70
2021/04/27 00:48:33;;;;;;;3.80;2.27;;;9.50;54.70;;;;;;5033327;28;20461;-71
2021/04/27 00:51:00;;;;;;;2.63;2.13;;;9.50;54.70;;;;;;5067120;28;20481;-71
2021/04/27 00:53:27;;;;;;;3.10;2.30;;;9.50;54.90;;;;;;5045030;28;20455;-72
2021/04/27 00:55:53;;;;;;;1.97;1.87;;;9.50;54.60;;;;;;5059264;28;20508;-70
2021/04/27 00:58:21;;;;;;;2.90;2.43;;;9.50;54.70;;;;;;5050072;28;20452;-68
2021/04/27 01:00:48;;;;;;;3.00;2.23;;;9.50;54.70;;;;;;5068638;28;20480;-71
2021/04/27 01:03:15;;;;;;;2.07;1.87;;;9.50;54.70;;;;;;5048483;28;20553;-72
2021/04/27 01:05:42;;;;;;;1.87;1.67;;;9.50;54.90;;;;;;5089247;28;20473;-70
2021/04/27 01:08:42;;;;;;;1.83;1.73;;;9.40;54.70;;;;;;5057910;28;20963;-71
2021/04/27 01:11:23;;;;;;;4.77;3.57;;;9.40;54.70;;;;;;5069165;28;20444;-70
2021/04/27 01:13:54;;;;;;;1.80;1.70;;;9.30;54.70;;;;;;5086194;28;20458;-70
2021/04/27 01:16:21;;;;;;;1.83;1.73;;;9.30;54.70;;;;;;5066060;28;20822;-69
2021/04/27 01:18:50;;;;;;;3.37;2.20;;;9.30;54.80;;;;;;5052933;28;20449;-71
2021/04/27 01:21:17;;;;;;;2.20;1.93;;;9.30;54.50;;;;;;5051715;28;20516;-70
2021/04/27 01:24:11;;;;;;;3.10;2.57;;;9.30;54.50;;;;;;5052829;28;20449;-71
2021/04/27 01:27:26;;;;;;;2.07;1.60;;;9.30;54.60;;;;;;5072293;28;21010;-71
2021/04/27 01:29:52;;;;;;;2.80;2.17;;;9.30;54.70;;;;;;5053239;28;20506;-71
2021/04/27 01:32:20;;;;;;;1.33;1.30;;;9.30;54.70;;;;;;5055860;28;20461;-72
2021/04/27 01:34:57;;;;;;;3.13;2.27;;;9.30;54.80;;;;;;5060085;28;20827;-71
2021/04/27 01:37:47;;;;;;;2.50;1.90;;;9.30;54.80;;;;;;5046361;28;20458;-71
2021/04/27 01:40:13;;;;;;;1.80;1.70;;;9.20;54.70;;;;;;5051303;28;20985;-71
2021/04/27 01:42:39;;;;;;;2.03;1.87;;;9.20;54.80;;;;;;5039807;28;20453;-70
2021/04/27 01:45:07;;;;;;;2.47;1.73;;;9.20;54.90;;;;;;5068016;28;20523;-71
2021/04/27 01:47:34;;;;;;;1.97;1.67;;;9.20;54.80;;;;;;5063009;28;20215;-70
2021/04/27 01:50:00;;;;;;;1.60;1.50;;;9.20;54.90;;;;;;5056013;28;20985;-72
2021/04/27 01:52:32;;;;;;;2.53;2.33;;;9.10;54.90;;;;;;5052513;28;20457;-70
2021/04/27 01:55:02;;;;;;;2.57;1.60;;;9.10;54.90;;;;;;5063879;28;20607;-69
2021/04/27 01:57:29;;;;;;;1.70;1.60;;;9.10;55.00;;;;;;5059974;28;20470;-71
2021/04/27 01:59:56;;;;;;;2.63;1.83;;;9.10;54.90;;;;;;5079945;28;20465;-71
2021/04/27 02:02:45;;;;;;;1.40;1.30;;;9.00;55.20;;;;;;5070834;28;20517;-72
2021/04/27 02:05:30;;;;;;;2.33;2.13;;;9.00;54.80;;;;;;5107930;28;20461;-72
2021/04/27 02:07:59;;;;;;;1.50;1.40;;;9.00;54.70;;;;;;5042777;28;20452;-71
2021/04/27 02:10:30;;;;;;;1.77;1.67;;;9.00;54.60;;;;;;5047278;28;20450;-71
2021/04/27 02:13:02;;;;;;;9.30;2.03;;;9.00;54.80;;;;;;5050974;28;20455;-70
2021/04/27 02:15:29;;;;;;;1.90;1.70;;;9.00;54.80;;;;;;5062163;28;20238;-71
2021/04/27 02:18:02;;;;;;;2.10;2.00;;;8.90;54.80;;;;;;5063242;28;20446;-71
2021/04/27 02:20:30;;;;;;;1.90;1.80;;;8.90;54.80;;;;;;5066869;28;20446;-71
2021/04/27 02:23:32;;;;;;;1.53;1.43;;;8.90;55.00;;;;;;5053794;28;20452;-71
2021/04/27 02:26:02;;;;;;;1.60;1.50;;;8.80;55.00;;;;;;5032078;28;20453;-71
2021/04/27 02:28:35;;;;;;;1.80;1.70;;;8.80;55.10;;;;;;5037999;28;20470;-71
2021/04/27 02:31:01;;;;;;;1.80;1.70;;;8.80;55.00;;;;;;5036765;28;20527;-70
2021/04/27 02:33:27;;;;;;;1.73;1.63;;;8.80;55.20;;;;;;5073564;28;20206;-71
2021/04/27 02:35:54;;;;;;;2.10;1.90;;;8.70;55.00;;;;;;5090723;28;20578;-72
2021/04/27 02:38:35;;;;;;;1.67;1.43;;;8.70;54.90;;;;;;5073334;28;20475;-70
2021/04/27 02:41:02;;;;;;;1.90;1.80;;;8.70;54.90;;;;;;5067490;28;20498;-70
2021/04/27 02:43:31;;;;;;;4.20;2.03;;;8.70;55.00;;;;;;5083689;28;20468;-70
2021/04/27 02:45:57;;;;;;;1.90;1.80;;;8.70;55.10;;;;;;5060518;28;20454;-70
2021/04/27 02:48:40;;;;;;;2.77;1.90;;;8.70;55.20;;;;;;5067560;28;20486;-71
2021/04/27 02:51:11;;;;;;;3.80;2.43;;;8.60;55.20;;;;;;5069691;28;20527;-71
2021/04/27 02:53:47;;;;;;;1.73;1.50;;;8.50;55.10;;;;;;5041585;28;20445;-71
2021/04/27 02:56:13;;;;;;;4.10;2.10;;;8.50;55.20;;;;;;5017191;28;20449;-70
2021/04/27 02:58:44;;;;;;;1.70;1.60;;;8.50;55.50;;;;;;5037200;28;20215;-72
2021/04/27 03:01:11;;;;;;;4.00;1.90;;;8.40;55.30;;;;;;5020576;28;20460;-72
2021/04/27 03:03:37;;;;;;;2.60;1.50;;;8.40;55.20;;;;;;5012852;28;21001;-70
2021/04/27 03:06:04;;;;;;;5.63;2.10;;;8.40;55.20;;;;;;5017515;28;20458;-70
2021/04/27 03:08:34;;;;;;;2.73;1.93;;;8.40;55.20;;;;;;5045214;28;20443;-70
2021/04/27 03:11:00;;;;;;;3.07;1.40;;;8.40;55.20;;;;;;5027725;28;20450;-71
2021/04/27 03:13:26;;;;;;;2.63;2.23;;;8.40;55.20;;;;;;5032930;28;20453;-70
2021/04/27 03:15:53;;;;;;;3.13;2.10;;;8.40;55.20;;;;;;5067716;28;20233;-71
2021/04/27 03:18:19;;;;;;;2.73;2.53;;;8.40;55.20;;;;;;5035498;28;21036;-71
2021/04/27 03:20:46;;;;;;;2.77;2.00;;;8.40;55.20;;;;;;5047194;28;20525;-71
2021/04/27 03:23:41;;;;;;;2.10;1.83;;;8.40;55.20;;;;;;5008475;28;20474;-71
2021/04/27 03:26:07;;;;;;;3.13;1.80;;;8.40;55.20;;;;;;5036325;28;20454;-70
2021/04/27 03:28:52;;;;;;;1.90;1.73;;;8.40;55.20;;;;;;5038434;28;20210;-71
2021/04/27 03:31:19;;;;;;;2.03;1.83;;;8.40;55.10;;;;;;5034145;28;20534;-70
2021/04/27 03:33:45;;;;;;;2.97;2.30;;;8.40;55.20;;;;;;5020045;28;20457;-71
2021/04/27 03:36:11;;;;;;;2.70;1.77;;;8.40;55.20;;;;;;5065394;28;20516;-71
2021/04/27 03:38:39;;;;;;;2.50;2.03;;;8.40;55.10;;;;;;5040783;28;20218;-70
2021/04/27 03:41:05;;;;;;;2.10;1.80;;;8.40;55.10;;;;;;5033572;28;20909;-71
2021/04/27 03:43:33;;;;;;;3.07;1.77;;;8.30;55.10;;;;;;5041706;28;20474;-70
2021/04/27 03:45:59;;;;;;;1.77;1.67;;;8.30;55.20;;;;;;5052619;28;20454;-70
2021/04/27 03:48:25;;;;;;;2.33;1.87;;;8.30;55.20;;;;;;5035306;28;20245;-70
2021/04/27 03:50:56;;;;;;;1.80;1.70;;;8.30;55.20;;;;;;5032003;28;20211;-71
2021/04/27 03:53:33;;;;;;;2.10;1.90;;;8.20;55.30;;;;;;5034190;28;20482;-71
2021/04/27 03:56:01;;;;;;;1.87;1.70;;;8.20;55.30;;;;;;5039621;28;20966;-69
2021/04/27 03:58:27;;;;;;;2.80;2.10;;;8.20;55.30;;;;;;5046769;28;20464;-71
2021/04/27 04:00:54;;;;;;;1.73;1.63;;;8.10;55.30;;;;;;4977308;28;20525;-71
2021/04/27 04:03:21;;;;;;;1.77;1.67;;;8.10;55.50;;;;;;5062441;28;20446;-71
2021/04/27 04:05:49;;;;;;;2.00;1.50;;;8.10;55.50;;;;;;5001295;28;20458;-71
2021/04/27 04:08:35;;;;;;;2.10;1.87;;;8.10;55.40;;;;;;5059417;28;20433;-71
2021/04/27 04:11:02;;;;;;;1.63;1.53;;;8.00;55.40;;;;;;5055253;28;20498;-71
2021/04/27 04:13:27;;;;;;;1.73;1.63;;;8.00;55.40;;;;;;5055020;28;20441;-71
2021/04/27 04:15:53;;;;;;;1.67;1.57;;;8.00;55.50;;;;;;5064489;28;20525;-71
2021/04/27 04:18:21;;;;;;;2.53;1.73;;;7.90;55.50;;;;;;5033930;28;20208;-72
2021/04/27 04:20:48;;;;;;;2.40;1.63;;;7.90;55.60;;;;;;5040653;28;20960;-71
2021/04/27 04:23:29;;;;;;;2.20;1.60;;;7.90;55.60;;;;;;5033521;28;20475;-70
2021/04/27 04:25:55;;;;;;;2.13;1.53;;;7.90;55.70;;;;;;5080211;28;20458;-70
2021/04/27 04:28:23;;;;;;;1.80;1.70;;;7.80;55.60;;;;;;5044507;28;20580;-71
2021/04/27 04:30:49;;;;;;;2.27;1.40;;;7.80;55.50;;;;;;5023737;28;20442;-70
2021/04/27 04:33:34;;;;;;;2.20;2.00;;;7.80;55.60;;;;;;5053479;28;20500;-71
2021/04/27 04:36:19;;;;;;;2.53;1.60;;;7.80;55.60;;;;;;5039574;28;20480;-71
2021/04/27 04:39:04;;;;;;;1.87;1.40;;;7.80;55.80;;;;;;5026674;28;20487;-72
2021/04/27 04:42:05;;;;;;;3.53;1.60;;;7.80;55.70;;;;;;4968007;28;20473;-71
2021/04/27 04:45:05;;;;;;;3.93;1.63;;;7.80;55.90;;;;;;5001855;28;20466;-71
2021/04/27 04:47:52;;;;;;;1.53;1.43;;;7.70;56.00;;;;;;5041143;28;20449;-70
2021/04/27 04:50:37;;;;;;;1.93;1.70;;;7.70;56.00;;;;;;5069155;28;20838;-71
2021/04/27 04:53:37;;;;;;;3.50;1.60;;;7.70;56.10;;;;;;5040446;28;20469;-71
2021/04/27 04:56:03;;;;;;;2.63;2.00;;;7.70;56.30;;;;;;5052140;28;20803;-71
2021/04/27 04:58:33;;;;;;;1.53;1.40;;;7.70;56.30;;;;;;5031022;28;20235;-71
2021/04/27 05:01:03;;;;;;;1.73;1.47;;;7.70;56.50;;;;;;5051753;28;20532;-72
2021/04/27 05:03:29;;;;;;;1.67;1.40;;;7.60;56.40;;;;;;5051874;28;20477;-71
2021/04/27 05:06:16;;;;;;;1.67;1.57;;;7.60;56.60;;;;;;5054441;28;20234;-71
2021/04/27 05:09:03;;;;;;;1.50;1.40;;;7.60;56.60;;;;;;5054609;28;20816;-72
2021/04/27 05:11:56;;;;;;;1.50;1.40;;;7.60;56.60;;;;;;5051954;28;20525;-70
2021/04/27 05:14:45;;;;;;;2.37;1.70;;;7.60;56.80;;;;;;5049323;28;20561;-70
2021/04/27 05:17:16;;;;;;;1.43;1.37;;;7.60;56.90;;;;;;5041531;28;20441;-71
2021/04/27 05:19:42;;;;;;;6.37;2.70;;;7.60;56.90;;;;;;5035814;28;20966;-72
2021/04/27 05:22:09;;;;;;;1.70;1.60;;;7.50;56.80;;;;;;5038320;28;20453;-71
2021/04/27 05:24:37;;;;;;;2.37;2.00;;;7.50;56.80;;;;;;5052057;28;20513;-71
2021/04/27 05:27:15;;;;;;;1.70;1.10;;;7.50;56.70;;;;;;5052798;28;20560;-70
2021/04/27 05:29:41;;;;;;;1.70;1.60;;;7.50;56.90;;;;;;5054979;28;20524;-71
2021/04/27 05:32:07;;;;;;;2.30;1.87;;;7.60;57.00;;;;;;5054794;28;20468;-71
2021/04/27 05:34:33;;;;;;;1.47;1.37;;;7.60;57.00;;;;;;5070955;28;20223;-71
2021/04/27 05:36:59;;;;;;;1.50;1.40;;;7.60;56.90;;;;;;5069931;28;20520;-71
2021/04/27 05:39:25;;;;;;;3.20;2.00;;;7.50;56.90;;;;;;5043158;28;20530;-70
2021/04/27 05:41:50;;;;;;;1.77;1.53;;;7.50;57.00;;;;;;5034861;28;20224;-70
2021/04/27 05:44:16;;;;;;;2.60;1.97;;;7.50;57.00;;;;;;5023024;28;20252;-72
2021/04/27 05:46:42;;;;;;;2.40;2.00;;;7.60;57.30;;;;;;5031113;28;20577;-71
2021/04/27 05:49:08;;;;;;;4.27;1.87;;;7.60;57.30;;;;;;5091088;28;20261;-71
2021/04/27 05:51:34;;;;;;;1.60;1.47;;;7.60;57.30;;;;;;5055338;28;20223;-72
2021/04/27 05:53:59;;;;;;;2.00;1.80;;;7.60;57.60;;;;;;5084171;28;20644;-71
2021/04/27 05:56:25;;;;;;;1.40;1.30;;;7.60;57.30;;;;;;5062772;28;20219;-71
2021/04/27 05:58:51;;;;;;;1.90;1.67;;;7.70;57.30;;;;;;5038000;28;20559;-70
2021/04/27 06:01:17;;;;;;;1.63;1.40;;;7.70;57.50;;;;;;5045365;28;20229;-72
2021/04/27 06:03:43;;;;;;;1.63;1.33;;;7.60;57.50;;;;;;5085289;28;20476;-72
2021/04/27 06:06:08;;;;;;;1.70;1.60;;;7.70;57.50;;;;;;5064609;28;20216;-71
2021/04/27 06:08:35;;;;;;;1.20;1.10;;;7.70;57.40;;;;;;5065931;28;20945;-71
2021/04/27 06:11:04;;;;;;;1.90;1.80;;;7.70;57.50;;;;;;5073758;28;20218;-71
2021/04/27 06:13:41;;;;;;;1.67;1.50;;;7.70;57.60;;;;;;5074086;28;21023;-71
2021/04/27 06:16:07;;;;;;;1.40;1.30;;;7.70;57.40;;;;;;5056059;28;20457;-71
2021/04/27 06:18:33;;;;;;;1.43;1.33;;;7.80;57.70;;;;;;5054347;28;20461;-72
2021/04/27 06:20:59;;;;;;;2.50;1.73;;;7.80;57.70;;;;;;5037003;28;20560;-71
2021/04/27 06:23:25;;;;;;;5.97;2.10;;;7.80;57.70;;;;;;5040351;28;20271;-71
2021/04/27 06:25:51;;;;;;;1.47;1.37;;;7.90;57.90;;;;;;5060121;28;20234;-72
2021/04/27 06:28:17;;;;;;;1.47;1.33;;;8.00;58.00;;;;;;5054391;28;20219;-72
2021/04/27 06:30:43;;;;;;;1.80;1.70;;;8.00;57.80;;;;;;5048229;28;20486;-70
2021/04/27 06:33:10;;;;;;;2.23;2.03;;;8.00;58.00;;;;;;5056987;28;20215;-70
2021/04/27 06:35:36;;;;;;;1.67;1.57;;;8.10;57.70;;;;;;5073952;28;20441;-71
2021/04/27 06:38:02;;;;;;;2.83;1.70;;;8.10;57.50;;;;;;5056752;28;20494;-72
2021/04/27 06:40:28;;;;;;;1.43;1.33;;;8.00;57.30;;;;;;5045356;28;20437;-71
2021/04/27 06:42:54;;;;;;;4.73;2.10;;;8.10;57.70;;;;;;5085751;28;20456;-72
2021/04/27 06:45:20;;;;;;;1.47;1.37;;;8.10;57.20;;;;;;5024104;28;21136;-71
2021/04/27 06:47:46;;;;;;;1.53;1.20;;;8.10;56.70;;;;;;5049503;28;20225;-71
2021/04/27 06:50:14;;;;;;;1.20;1.10;;;8.10;57.50;;;;;;5045371;28;20434;-71
2021/04/27 06:52:40;;;;;;;1.43;1.30;;;8.10;57.00;;;;;;5057055;28;20465;-71
2021/04/27 06:55:06;;;;;;;1.60;1.30;;;8.20;57.30;;;;;;5053217;28;20449;-72
2021/04/27 06:57:32;;;;;;;1.73;1.53;;;8.30;57.40;;;;;;5061327;28;20591;-69
2021/04/27 06:59:58;;;;;;;2.27;1.50;;;8.40;57.10;;;;;;5056398;28;20458;-72
2021/04/27 07:02:24;;;;;;;1.70;1.60;;;8.40;56.90;;;;;;5036664;28;20218;-71
2021/04/27 07:04:49;;;;;;;3.50;1.73;;;8.50;57.30;;;;;;5020145;28;21021;-71
2021/04/27 07:07:15;;;;;;;1.90;1.60;;;8.60;57.60;;;;;;5062211;28;20230;-70
2021/04/27 07:09:41;;;;;;;1.93;1.40;;;8.70;57.30;;;;;;5056344;28;20215;-71
2021/04/27 07:12:07;;;;;;;1.73;1.63;;;8.70;57.50;;;;;;5063147;28;20327;-72
2021/04/27 07:14:33;;;;;;;2.20;1.67;;;8.80;56.90;;;;;;5041636;28;20220;-70
2021/04/27 07:16:59;;;;;;;2.03;1.63;;;8.80;56.80;;;;;;5069087;28;21023;-71
2021/04/27 07:19:24;;;;;;;3.20;1.90;;;8.90;57.00;;;;;;5069588;28;20619;-72
2021/04/27 07:21:51;;;;;;;2.60;1.90;;;8.90;56.90;;;;;;5073342;28;20223;-71
2021/04/27 07:24:17;;;;;;;1.60;1.50;;;8.90;56.40;;;;;;5063346;28;20223;-72
2021/04/27 07:26:45;;;;;;;1.70;1.60;;;9.00;56.50;;;;;;5064483;28;20853;-71
2021/04/27 07:29:12;;;;;;;2.13;1.60;;;9.10;56.90;;;;;;5070461;28;20223;-70
2021/04/27 07:31:38;;;;;;;2.20;1.70;;;9.10;56.70;;;;;;5081176;28;21014;-72
2021/04/27 07:34:04;;;;;;;2.23;1.67;;;9.20;56.90;;;;;;5072627;28;20453;-71
2021/04/27 07:36:30;;;;;;;2.37;1.57;;;9.20;56.50;;;;;;5089855;28;20445;-71
2021/04/27 07:38:56;;;;;;;1.60;1.50;;;9.30;56.80;;;;;;5052895;28;20524;-70
2021/04/27 07:41:22;;;;;;;2.57;1.87;;;9.40;56.40;;;;;;5063728;28;20649;-71
2021/04/27 07:43:48;;;;;;;2.80;1.97;;;9.40;56.30;;;;;;5072355;28;20649;-71
2021/04/27 07:46:14;;;;;;;2.33;2.07;;;9.50;57.30;;;;;;5072225;28;20762;-72
2021/04/27 07:48:40;;;;;;;1.80;1.33;;;9.60;57.00;;;;;;5043615;28;20212;-70
2021/04/27 07:51:06;;;;;;;2.07;1.97;;;9.70;56.90;;;;;;5080273;28;20453;-72
2021/04/27 07:53:32;;;;;;;2.07;1.90;;;9.80;56.80;;;;;;5076185;28;20796;-71
2021/04/27 07:55:57;;;;;;;2.57;2.10;;;9.90;57.00;;;;;;5067952;28;20482;-71
2021/04/27 07:58:23;;;;;;;1.50;1.40;;;9.90;56.40;;;;;;5073156;28;20280;-71
2021/04/27 08:00:49;;;;;;;2.13;1.93;;;9.90;56.20;;;;;;5083142;28;20242;-70
2021/04/27 08:03:15;;;;;;;3.60;1.80;;;9.90;56.00;;;;;;5077343;28;20266;-70
2021/04/27 08:05:41;;;;;;;2.00;1.50;;;10.00;55.60;;;;;;5063738;28;20276;-72
2021/04/27 08:08:06;;;;;;;3.30;2.07;;;10.10;55.40;;;;;;5047001;28;20223;-71
2021/04/27 08:10:32;;;;;;;1.93;1.63;;;10.20;55.40;;;;;;5055575;28;20455;-71
2021/04/27 08:12:58;;;;;;;4.23;2.20;;;10.30;55.60;;;;;;5055057;28;20305;-72
2021/04/27 08:15:27;;;;;;;2.53;1.97;;;10.40;55.50;;;;;;5067724;28;20222;-71
2021/04/27 08:17:54;;;;;;;3.13;1.77;;;10.50;55.30;;;;;;5068564;28;20207;-72
2021/04/27 08:20:20;;;;;;;2.40;1.63;;;10.60;55.90;;;;;;5035445;28;20450;-71
2021/04/27 08:22:47;;;;;;;4.77;2.03;;;10.80;56.00;;;;;;5035419;28;20460;-71
2021/04/27 08:25:14;;;;;;;2.43;2.20;;;10.80;55.70;;;;;;5042942;28;20487;-71
2021/04/27 08:27:41;;;;;;;2.37;2.17;;;11.00;56.10;;;;;;5050861;28;20453;-72
2021/04/27 08:30:08;;;;;;;2.00;1.80;;;11.10;56.10;;;;;;5072379;28;20453;-70
2021/04/27 08:32:34;;;;;;;8.77;4.00;;;11.10;55.30;;;;;;5065142;28;20479;-71
2021/04/27 08:35:02;;;;;;;3.17;2.27;;;11.20;55.70;;;;;;5072147;28;20468;-71
2021/04/27 08:37:28;;;;;;;2.13;1.93;;;11.30;56.00;;;;;;5089538;28;20227;-71
2021/04/27 08:39:54;;;;;;;2.27;1.97;;;11.40;56.00;;;;;;5061170;28;20487;-72
2021/04/27 08:42:20;;;;;;;3.07;2.07;;;11.40;56.00;;;;;;5073562;28;20488;-72
2021/04/27 08:44:46;;;;;;;2.90;2.03;;;11.50;55.70;;;;;;5051909;28;20989;-72
2021/04/27 08:47:14;;;;;;;2.47;1.93;;;11.60;55.80;;;;;;5056283;28;20702;-70
2021/04/27 08:49:40;;;;;;;2.40;2.20;;;11.70;55.80;;;;;;5050294;28;20483;-71
2021/04/27 08:52:06;;;;;;;2.27;2.07;;;11.80;55.50;;;;;;5051327;28;20485;-71
2021/04/27 08:54:35;;;;;;;4.33;2.00;;;11.90;55.60;;;;;;5071822;28;20222;-71
2021/04/27 08:57:02;;;;;;;2.50;1.80;;;12.10;55.80;;;;;;5043679;28;20464;-71
2021/04/27 08:59:27;;;;;;;2.70;2.50;;;12.20;55.40;;;;;;5073239;28;20461;-71
2021/04/27 09:01:53;;;;;;;3.40;2.83;;;12.40;55.50;;;;;;5071086;28;20456;-71
2021/04/27 09:04:43;;;;;;;3.10;2.30;;;12.50;55.70;;;;;;5040930;28;20349;-71
2021/04/27 09:07:20;;;;;;;4.23;2.70;;;12.60;55.70;;;;;;5035960;28;20230;-70
2021/04/27 09:09:49;;;;;;;3.30;2.43;;;12.70;55.30;;;;;;5070035;28;20448;-71
2021/04/27 09:12:27;;;;;;;3.07;2.27;;;12.80;55.40;;;;;;5046356;28;20445;-71
2021/04/27 09:14:55;;;;;;;3.00;2.57;;;12.90;55.40;;;;;;5070029;28;20456;-72
2021/04/27 09:17:27;;;;;;;3.70;2.60;;;13.00;55.10;;;;;;5056429;28;20856;-69
2021/04/27 09:19:55;;;;;;;3.97;2.03;;;13.10;55.20;;;;;;5064579;28;20977;-69
2021/04/27 09:22:47;;;;;;;3.60;2.80;;;13.20;55.40;;;;;;5025390;28;21265;-69
2021/04/27 09:25:14;;;;;;;2.43;2.23;;;13.20;54.70;;;;;;5058205;28;20449;-69
2021/04/27 09:27:48;;;;;;;2.57;2.37;;;13.40;55.30;;;;;;5042817;28;20540;-69
2021/04/27 09:30:15;;;;;;;2.70;2.30;;;13.60;55.30;;;;;;5072413;28;20471;-70
2021/04/27 09:32:45;;;;;;;3.10;2.57;;;13.70;54.60;;;;;;5054858;28;20520;-66
2021/04/27 09:35:40;;;;;;;3.70;2.80;;;13.60;54.90;;;;;;5071065;28;21058;-69
2021/04/27 09:38:16;;;;;;;3.40;2.23;;;13.60;54.90;;;;;;5084865;28;20458;-69
2021/04/27 09:41:04;;;;;;;5.80;2.73;;;13.70;55.20;;;;;;5086588;28;20860;-70
2021/04/27 09:43:31;;;;;;;2.90;2.30;;;14.00;55.30;;;;;;5072155;28;20511;-69
2021/04/27 09:45:59;;;;;;;2.90;2.50;;;14.10;55.40;;;;;;5046805;28;21036;-69
2021/04/27 09:48:46;;;;;;;2.20;2.00;;;14.20;55.10;;;;;;5056317;28;20437;-69
2021/04/27 09:51:12;;;;;;;3.90;2.50;;;14.10;55.20;;;;;;5053212;28;25108;-68
2021/04/27 09:53:46;;;;;;;4.93;3.00;;;14.20;55.20;;;;;;5054744;28;20507;-69
2021/04/27 09:56:48;;;;;;;2.60;2.17;;;14.20;54.80;;;;;;5081333;28;20310;-69
2021/04/27 09:59:24;;;;;;;3.37;2.53;;;14.20;54.90;;;;;;5044308;28;20815;-70
2021/04/27 10:01:53;;;;;;;3.87;2.70;;;14.30;54.80;;;;;;5057864;28;20490;-69
2021/04/27 10:04:19;;;;;;;3.50;3.10;;;14.20;54.90;;;;;;5056944;28;20464;-70
2021/04/27 10:06:47;;;;;;;3.20;2.90;;;14.30;55.00;;;;;;5065440;28;20476;-70
2021/04/27 10:09:13;;;;;;;3.10;2.90;;;14.50;55.00;;;;;;5059095;28;20529;-69
2021/04/27 10:11:39;;;;;;;5.33;3.20;;;14.60;55.00;;;;;;5082041;28;20535;-68
2021/04/27 10:14:07;;;;;;;4.23;2.77;;;14.60;54.70;;;;;;5073940;28;20233;-69
2021/04/27 10:16:33;;;;;;;3.40;3.00;;;14.70;54.90;;;;;;5057894;28;20460;-70
2021/04/27 10:18:59;;;;;;;3.47;2.40;;;14.80;54.90;;;;;;5072135;28;20450;-70
2021/04/27 10:21:25;;;;;;;4.50;3.10;;;14.80;54.70;;;;;;5064548;28;20498;-70
2021/04/27 10:23:56;;;;;;;3.87;2.67;;;14.80;54.60;;;;;;5054827;28;20242;-70
2021/04/27 10:26:25;;;;;;;3.27;2.77;;;14.90;54.80;;;;;;5068202;28;20452;-68
2021/04/27 10:29:08;;;;;;;3.43;3.13;;;15.00;54.80;;;;;;5041401;28;20442;-69
2021/04/27 10:31:40;;;;;;;3.60;2.50;;;15.20;54.80;;;;;;5037379;28;20455;-68
2021/04/27 10:34:10;;;;;;;3.40;3.10;;;15.20;54.80;;;;;;5053233;28;20457;-69
2021/04/27 10:36:40;;;;;;;2.53;2.33;;;15.30;54.50;;;;;;5042157;28;20464;-69
2021/04/27 10:39:09;;;;;;;3.40;3.07;;;15.20;54.50;;;;;;5096307;28;20502;-69
2021/04/27 10:41:45;;;;;;;4.00;2.70;;;15.00;53.90;;;;;;5068534;28;20856;-68
2021/04/27 10:44:13;;;;;;;2.90;2.50;;;15.00;54.90;;;;;;5052378;28;20491;-69
2021/04/27 10:46:39;;;;;;;3.00;2.70;;;15.20;55.00;;;;;;5025084;28;20445;-69
2021/04/27 10:49:36;;;;;;;3.87;3.57;;;15.40;55.10;;;;;;5037438;28;21051;-70
2021/04/27 10:52:04;;;;;;;3.73;3.10;;;15.60;54.50;;;;;;5052155;28;20234;-69
2021/04/27 10:54:36;;;;;;;4.30;3.57;;;15.80;54.50;;;;;;5054653;28;20463;-70
2021/04/27 10:57:05;;;;;;;3.60;3.30;;;15.90;54.30;;;;;;5045303;28;20878;-69
2021/04/27 10:59:48;;;;;;;3.73;2.70;;;15.80;53.90;;;;;;5072578;28;20453;-69
2021/04/27 11:02:25;;;;;;;7.67;2.73;;;15.90;54.30;;;;;;5072181;28;20835;-69
2021/04/27 11:04:53;;;;;;;6.63;4.00;;;16.10;54.70;;;;;;5081737;28;20473;-69
2021/04/27 11:07:19;;;;;;;4.07;3.67;;;16.10;54.00;;;;;;5073399;28;20514;-69
2021/04/27 11:10:05;;;;;;;3.63;3.33;;;16.10;54.20;;;;;;5032509;28;20466;-69
2021/04/27 11:12:37;;;;;;;3.60;3.30;;;16.00;53.40;;;;;;5086117;28;20215;-70
2021/04/27 11:15:32;;;;;;;4.80;3.50;;;16.10;53.80;;;;;;5070028;28;20493;-69
2021/04/27 11:18:18;;;;;;;5.13;3.83;;;16.10;53.60;;;;;;5017082;28;20531;-68
2021/04/27 11:21:05;;;;;;;4.10;3.40;;;16.00;53.70;;;;;;5053654;28;20857;-67
2021/04/27 11:23:36;;;;;;;4.17;3.30;;;16.20;54.50;;;;;;5044366;28;20499;-69
2021/04/27 11:26:23;;;;;;;3.40;3.10;;;16.60;54.30;;;;;;5068973;28;20485;-69
2021/04/27 11:28:58;;;;;;;3.97;3.60;;;16.70;53.80;;;;;;5040988;28;20975;-70
2021/04/27 11:31:54;;;;;;;3.17;2.70;;;16.70;53.90;;;;;;5082235;28;20513;-69
2021/04/27 11:34:20;;;;;;;4.70;3.87;;;16.70;53.10;;;;;;5067595;28;20843;-70
2021/04/27 11:36:46;;;;;;;2.83;2.63;;;16.80;53.30;;;;;;5057842;28;20450;-69
2021/04/27 11:39:13;;;;;;;3.17;2.87;;;17.00;53.70;;;;;;5061382;28;20461;-70
2021/04/27 11:41:58;;;;;;;6.00;3.90;;;17.20;53.50;;;;;;5054327;28;20522;-68
2021/04/27 11:44:38;;;;;;;5.93;3.70;;;17.20;53.10;;;;;;5052585;28;20460;-69
2021/04/27 11:47:15;;;;;;;3.87;3.50;;;17.00;52.90;;;;;;5051823;28;20477;-70
2021/04/27 11:49:49;;;;;;;3.30;2.67;;;17.00;53.60;;;;;;5098242;28;21026;-68
2021/04/27 11:52:36;;;;;;;4.63;3.50;;;17.00;53.80;;;;;;5053135;28;20852;-70
2021/04/27 11:55:09;;;;;;;4.30;3.50;;;17.00;52.80;;;;;;5043533;28;20944;-69
2021/04/27 11:57:35;;;;;;;3.53;3.20;;;16.80;53.60;;;;;;5079167;28;20958;-69
2021/04/27 12:00:01;;;;;;;4.50;2.70;;;16.90;53.00;;;;;;5044604;28;20469;-69
2021/04/27 12:02:31;;;;;;;3.90;3.33;;;17.00;52.40;;;;;;5051845;28;20214;-69
2021/04/27 12:04:58;;;;;;;3.27;2.97;;;17.20;52.30;;;;;;5069517;28;20235;-70
2021/04/27 12:07:28;;;;;;;4.43;3.20;;;17.40;53.00;;;;;;5080731;28;20453;-69
2021/04/27 12:09:57;;;;;;;3.80;3.30;;;17.50;52.60;;;;;;5059099;28;20446;-69
2021/04/27 12:12:23;;;;;;;4.30;3.60;;;17.40;52.50;;;;;;5071441;28;20457;-69
2021/04/27 12:14:59;;;;;;;5.10;2.77;;;17.50;52.10;;;;;;5085921;28;20457;-69
2021/04/27 12:17:34;;;;;;;3.50;3.20;;;17.60;52.40;;;;;;5041014;28;20507;-68
2021/04/27 12:20:06;;;;;;;3.50;3.20;;;17.80;52.20;;;;;;5047545;28;20941;-69
2021/04/27 12:22:32;;;;;;;7.63;3.07;;;17.70;50.60;;;;;;5054926;28;20830;-69
2021/04/27 12:24:58;;;;;;;3.57;3.10;;;17.90;51.10;;;;;;5062942;28;20497;-69
2021/04/27 12:27:24;;;;;;;3.17;2.83;;;18.10;51.00;;;;;;5066653;28;20886;-69
2021/04/27 12:30:08;;;;;;;4.53;3.30;;;18.20;51.20;;;;;;5049943;28;20239;-69
2021/04/27 12:32:36;;;;;;;3.53;3.23;;;18.00;50.00;;;;;;5055177;28;20844;-69
2021/04/27 12:35:23;;;;;;;3.50;3.20;;;17.80;49.80;;;;;;5055045;28;20476;-69
2021/04/27 12:38:02;;;;;;;4.20;3.33;;;17.90;50.20;;;;;;5072457;28;20457;-69
2021/04/27 12:40:52;;;;;;;3.50;2.93;;;17.80;49.60;;;;;;5022098;28;20531;-69
2021/04/27 12:43:31;;;;;;;3.37;3.07;;;18.00;50.80;;;;;;5056810;28;20495;-70
2021/04/27 12:46:25;;;;;;;3.40;2.53;;;18.10;50.90;;;;;;5039976;28;20480;-69
2021/04/27 12:48:50;;;;;;;2.93;2.73;;;18.30;49.90;;;;;;5065704;28;20872;-71
2021/04/27 12:51:16;;;;;;;3.00;2.67;;;18.30;50.70;;;;;;5056596;28;20456;-69
2021/04/27 12:53:44;;;;;;;2.73;2.53;;;18.40;50.50;;;;;;5038848;28;20207;-69
2021/04/27 12:56:16;;;;;;;3.63;3.27;;;18.30;49.50;;;;;;5075845;28;20455;-70
2021/04/27 12:58:44;;;;;;;4.80;3.07;;;18.40;49.50;;;;;;5070390;28;20488;-69
2021/04/27 13:01:18;;;;;;;4.53;3.40;;;18.50;51.00;;;;;;5054095;28;20477;-70
2021/04/27 13:03:43;;;;;;;3.13;2.73;;;18.50;50.10;;;;;;5042727;28;20485;-70
2021/04/27 13:06:30;;;;;;;3.43;3.13;;;18.50;50.50;;;;;;5044927;28;20856;-69
2021/04/27 13:09:14;;;;;;;3.33;2.90;;;18.50;50.20;;;;;;5033220;28;20237;-68
2021/04/27 13:11:55;;;;;;;5.30;3.77;;;18.20;48.80;;;;;;5065127;28;20452;-69
2021/04/27 13:14:23;;;;;;;4.23;2.90;;;18.00;48.60;;;;;;5042347;28;20459;-69